Time;durP1;ratioP1;P1;durP2;ratioP2;P2;SDS_P1;SDS_P2;PMS_P1;PMS_P2;Temp;Humidity;BMP_temperature;BMP_pressure;BME280_temperature;BME280_humidity;BME280_pressure;Samples;Min_cycle;Max_cycle;Signal;HPM_P1;HPM_P2
2022/06/28 00:01:20;;;;;;;2.17;2.00;;;;;;;14.30;100.00;100606.84;5012999;28;20226;-73
2022/06/28 00:03:46;;;;;;;2.43;1.83;;;;;;;14.26;100.00;100603.63;5018006;28;20193;-74
2022/06/28 00:06:11;;;;;;;4.10;2.37;;;;;;;14.25;100.00;100603.72;5029997;28;20191;-74
2022/06/28 00:08:37;;;;;;;4.80;2.20;;;;;;;14.24;100.00;100600.31;5012263;28;20209;-72
2022/06/28 00:11:02;;;;;;;4.03;2.30;;;;;;;14.27;100.00;100605.28;5010193;28;20587;-72
2022/06/28 00:13:28;;;;;;;3.63;2.23;;;;;;;14.32;100.00;100602.41;5020111;28;20222;-72
2022/06/28 00:16:06;;;;;;;2.30;2.10;;;;;;;14.26;100.00;100605.38;5027842;28;20185;-73
2022/06/28 00:18:39;;;;;;;3.27;2.50;;;;;;;14.17;100.00;100602.44;5027799;28;20277;-73
2022/06/28 00:21:09;;;;;;;4.33;2.70;;;;;;;14.24;100.00;100608.09;5009767;28;20304;-73
2022/06/28 00:23:36;;;;;;;4.37;2.20;;;;;;;14.20;100.00;100606.59;5018878;28;20190;-73
2022/06/28 00:26:03;;;;;;;3.00;2.10;;;;;;;14.16;100.00;100598.19;5027894;28;20179;-72
2022/06/28 00:28:28;;;;;;;2.97;2.37;;;;;;;14.14;100.00;100601.78;5011207;28;20187;-73
2022/06/28 00:30:54;;;;;;;2.47;2.20;;;;;;;14.11;100.00;100610.56;5008820;28;20233;-74
2022/06/28 00:33:19;;;;;;;4.60;2.80;;;;;;;14.07;100.00;100614.28;5003325;28;20208;-73
2022/06/28 00:35:45;;;;;;;4.67;2.70;;;;;;;14.04;100.00;100617.88;5011002;28;20610;-74
2022/06/28 00:38:11;;;;;;;2.33;2.13;;;;;;;14.10;100.00;100614.06;5027268;28;20214;-73
2022/06/28 00:40:53;;;;;;;3.13;2.27;;;;;;;13.98;100.00;100618.25;5003352;28;20257;-73
2022/06/28 00:43:22;;;;;;;3.63;2.37;;;;;;;14.01;100.00;100619.81;5023088;28;20183;-73
2022/06/28 00:45:47;;;;;;;4.20;2.47;;;;;;;14.06;100.00;100620.38;5019613;28;20178;-72
2022/06/28 00:48:15;;;;;;;2.80;2.57;;;;;;;14.08;100.00;100628.88;5012298;28;20189;-72
2022/06/28 00:50:41;;;;;;;2.83;2.40;;;;;;;14.04;100.00;100629.97;5003234;28;20280;-73
2022/06/28 00:53:15;;;;;;;2.93;2.47;;;;;;;13.97;100.00;100641.63;5025616;28;20249;-73
2022/06/28 00:55:41;;;;;;;3.97;2.47;;;;;;;13.93;100.00;100640.13;5011976;28;20237;-73
2022/06/28 00:58:07;;;;;;;2.47;2.27;;;;;;;14.00;100.00;100638.84;5012231;28;20191;-73
2022/06/28 01:00:37;;;;;;;3.93;2.37;;;;;;;13.94;100.00;100644.41;5019357;28;20218;-74
2022/06/28 01:03:03;;;;;;;2.53;2.33;;;;;;;13.97;100.00;100644.22;5022652;28;20194;-73
2022/06/28 01:05:29;;;;;;;4.50;3.00;;;;;;;13.90;100.00;100648.09;5031090;28;20228;-74
2022/06/28 01:07:55;;;;;;;2.50;2.00;;;;;;;13.85;100.00;100646.63;5014968;28;20646;-73
2022/06/28 01:10:20;;;;;;;2.57;2.00;;;;;;;13.76;100.00;100656.69;5002621;28;20262;-73
2022/06/28 01:12:46;;;;;;;4.93;2.23;;;;;;;13.74;100.00;100659.34;5010594;28;20626;-73
2022/06/28 01:15:11;;;;;;;3.93;2.40;;;;;;;13.70;100.00;100660.44;5011856;28;20705;-73
2022/06/28 01:17:37;;;;;;;2.77;2.57;;;;;;;13.68;100.00;100657.97;5011758;28;20570;-73
2022/06/28 01:20:02;;;;;;;4.63;2.43;;;;;;;13.69;100.00;100658.78;5023839;28;20253;-72
2022/06/28 01:22:29;;;;;;;3.43;2.47;;;;;;;13.67;100.00;100660.63;5005178;28;20569;-73
2022/06/28 01:24:56;;;;;;;2.93;2.50;;;;;;;13.68;100.00;100659.69;5011727;28;20561;-73
2022/06/28 01:27:22;;;;;;;3.27;3.00;;;;;;;13.68;100.00;100663.13;5026879;28;20206;-74
2022/06/28 01:29:48;;;;;;;5.17;2.53;;;;;;;13.48;100.00;100656.53;5010502;28;20268;-73
2022/06/28 01:32:14;;;;;;;4.80;2.67;;;;;;;13.57;100.00;100655.16;5016500;28;20574;-74
2022/06/28 01:34:40;;;;;;;2.70;2.50;;;;;;;13.59;100.00;100665.41;5026847;28;20201;-74
2022/06/28 01:37:07;;;;;;;3.07;2.50;;;;;;;13.56;100.00;100664.66;5011848;28;20179;-73
2022/06/28 01:39:32;;;;;;;3.77;2.90;;;;;;;13.56;100.00;100662.06;5026117;28;20198;-73
2022/06/28 01:41:58;;;;;;;3.40;2.77;;;;;;;13.48;100.00;100663.44;5015568;28;20586;-73
2022/06/28 01:44:25;;;;;;;3.53;2.40;;;;;;;13.44;100.00;100662.78;5021071;28;20247;-73
2022/06/28 01:46:50;;;;;;;3.50;3.20;;;;;;;13.39;100.00;100659.63;5011604;28;20650;-72
2022/06/28 01:49:16;;;;;;;3.17;2.87;;;;;;;13.38;100.00;100660.56;5011386;28;20256;-73
2022/06/28 01:51:41;;;;;;;5.57;3.57;;;;;;;13.28;100.00;100652.47;5013477;28;20229;-74
2022/06/28 01:54:06;;;;;;;3.77;2.73;;;;;;;13.27;100.00;100653.38;5020454;28;20242;-73
2022/06/28 01:56:32;;;;;;;3.17;2.87;;;;;;;13.20;100.00;100652.09;5011292;28;20179;-73
2022/06/28 01:58:57;;;;;;;5.87;3.03;;;;;;;13.27;100.00;100657.72;5010698;28;20185;-74
2022/06/28 02:01:22;;;;;;;3.00;2.73;;;;;;;13.21;100.00;100651.19;5019116;28;20228;-73
2022/06/28 02:03:49;;;;;;;4.10;2.90;;;;;;;13.24;100.00;100656.16;5009719;28;20190;-74
2022/06/28 02:06:14;;;;;;;2.80;2.60;;;;;;;13.21;100.00;100661.50;5013453;28;20178;-74
2022/06/28 02:08:39;;;;;;;3.10;2.90;;;;;;;13.17;100.00;100662.56;5011109;28;20502;-73
2022/06/28 02:11:05;;;;;;;6.20;2.90;;;;;;;13.20;100.00;100665.00;5008853;28;20222;-74
2022/06/28 02:13:31;;;;;;;4.93;3.07;;;;;;;13.16;100.00;100660.91;5018645;28;20183;-74
2022/06/28 02:15:56;;;;;;;4.53;2.90;;;;;;;13.07;100.00;100659.69;5011171;28;20500;-72
2022/06/28 02:18:21;;;;;;;3.40;3.10;;;;;;;13.03;100.00;100661.59;5011222;28;20203;-74
2022/06/28 02:20:47;;;;;;;3.70;2.90;;;;;;;13.01;100.00;100666.03;5006487;28;20245;-74
2022/06/28 02:23:12;;;;;;;7.47;3.97;;;;;;;12.99;100.00;100657.53;5020810;28;20194;-74
2022/06/28 02:25:38;;;;;;;3.57;3.27;;;;;;;12.95;100.00;100661.22;5010982;28;20591;-74
2022/06/28 02:28:03;;;;;;;5.00;3.60;;;;;;;12.93;100.00;100664.81;5025439;28;20179;-74
2022/06/28 02:30:29;;;;;;;4.73;3.83;;;;;;;12.84;100.00;100666.16;5003925;28;20306;-75
2022/06/28 02:32:54;;;;;;;4.87;4.03;;;;;;;12.75;100.00;100670.88;5022810;28;20226;-75
2022/06/28 02:40:47;;;;;;;3.97;3.60;;;;;;;12.62;100.00;100663.91;5005652;28;20320;-74
2022/06/28 02:43:13;;;;;;;4.30;3.50;;;;;;;12.58;100.00;100661.47;5022748;28;20262;-74
2022/06/28 02:45:39;;;;;;;3.40;3.10;;;;;;;12.58;100.00;100668.38;5020363;28;20653;-74
2022/06/28 02:48:05;;;;;;;3.53;3.30;;;;;;;12.57;100.00;100667.53;5014527;28;20182;-74
2022/06/28 02:50:31;;;;;;;5.70;3.80;;;;;;;12.56;100.00;100672.78;5021966;28;20708;-74
2022/06/28 02:52:56;;;;;;;4.13;3.43;;;;;;;12.50;100.00;100671.38;5028887;28;20219;-73
2022/06/28 02:55:22;;;;;;;4.63;3.33;;;;;;;12.51;100.00;100675.59;5018393;28;20190;-74
2022/06/28 02:57:47;;;;;;;7.07;4.83;;;;;;;12.49;100.00;100668.88;5029009;28;20171;-74
2022/06/28 03:00:15;;;;;;;4.13;3.83;;;;;;;12.50;100.00;100673.13;4993531;28;20228;-73
2022/06/28 03:02:42;;;;;;;5.43;4.50;;;;;;;12.50;100.00;100681.72;4993489;28;20642;-73
2022/06/28 03:05:10;;;;;;;6.17;4.17;;;;;;;12.48;100.00;100682.69;5008159;28;20661;-73
2022/06/28 03:07:36;;;;;;;5.40;3.87;;;;;;;12.51;100.00;100693.66;4998777;28;20631;-73
2022/06/28 03:10:03;;;;;;;5.23;4.33;;;;;;;12.50;100.00;100694.59;5011315;28;20259;-72
2022/06/28 03:12:29;;;;;;;5.30;4.80;;;;;;;12.53;100.00;100704.75;5012325;28;20623;-74
2022/06/28 03:14:54;;;;;;;6.10;4.57;;;;;;;12.50;100.00;100699.78;5013917;28;20198;-74
2022/06/28 03:17:19;;;;;;;11.53;4.27;;;;;;;12.45;100.00;100703.50;5018973;28;20225;-74
2022/06/28 03:19:45;;;;;;;6.73;4.40;;;;;;;12.45;100.00;100701.72;5013300;28;20230;-75
2022/06/28 03:22:10;;;;;;;5.03;4.60;;;;;;;12.46;100.00;100706.00;5019151;28;20229;-75
2022/06/28 03:24:35;;;;;;;6.53;4.77;;;;;;;12.44;100.00;100710.41;5013143;28;20236;-74
2022/06/28 03:27:01;;;;;;;4.60;3.80;;;;;;;12.41;100.00;100702.81;5028653;28;20182;-73
2022/06/28 03:29:27;;;;;;;4.90;4.03;;;;;;;12.42;100.00;100710.47;5013066;28;20309;-73
2022/06/28 03:31:52;;;;;;;5.30;3.80;;;;;;;12.47;100.00;100717.16;4986301;28;20343;-73
2022/06/28 03:34:19;;;;;;;5.97;4.57;;;;;;;12.47;100.00;100720.56;5013364;28;20187;-73
2022/06/28 03:36:45;;;;;;;5.93;4.90;;;;;;;12.48;100.00;100717.06;5013653;28;20348;-73
2022/06/28 03:39:10;;;;;;;7.03;4.97;;;;;;;12.49;100.00;100725.63;5028188;28;20646;-73
2022/06/28 03:41:35;;;;;;;5.20;4.70;;;;;;;12.44;100.00;100720.75;5021050;28;20297;-74
2022/06/28 03:44:01;;;;;;;9.13;4.90;;;;;;;12.43;100.00;100714.72;5024438;28;20178;-73
2022/06/28 03:46:26;;;;;;;4.87;4.47;;;;;;;12.49;100.00;100723.91;5015714;28;20231;-74
2022/06/28 03:48:51;;;;;;;10.17;4.87;;;;;;;12.54;100.00;100721.06;5012827;28;20546;-74
2022/06/28 03:51:17;;;;;;;8.03;4.60;;;;;;;12.60;100.00;100718.16;5012689;28;20579;-74
2022/06/28 03:53:43;;;;;;;5.43;4.57;;;;;;;12.70;100.00;100721.06;5013522;28;20179;-74
2022/06/28 03:56:08;;;;;;;7.33;4.87;;;;;;;12.78;100.00;100713.75;5011611;28;20196;-74
2022/06/28 03:58:34;;;;;;;7.60;5.00;;;;;;;12.91;100.00;100711.34;5028094;28;20266;-72
2022/06/28 04:01:00;;;;;;;9.00;5.83;;;;;;;12.94;100.00;100713.78;5021006;28;20254;-74
2022/06/28 04:03:25;;;;;;;8.10;5.40;;;;;;;12.91;100.00;100711.34;5011597;28;20623;-74
2022/06/28 04:05:51;;;;;;;9.67;5.90;;;;;;;12.93;100.00;100714.69;5014713;28;20182;-74
2022/06/28 04:08:16;;;;;;;8.20;4.83;;;;;;;13.01;100.00;100716.84;5028171;28;20200;-74
2022/06/28 04:10:42;;;;;;;4.57;4.10;;;;;;;13.07;100.00;100722.50;5007193;28;20265;-74
2022/06/28 04:13:08;;;;;;;7.93;4.80;;;;;;;13.15;100.00;100724.66;5023400;28;20229;-75
2022/06/28 04:15:34;;;;;;;6.80;4.50;;;;;;;13.17;100.00;100727.16;5012371;28;20191;-74
2022/06/28 04:18:00;;;;;;;6.70;4.47;;;;;;;13.34;100.00;100723.63;5012824;28;20194;-74
2022/06/28 04:20:25;;;;;;;9.20;5.30;;;;;;;13.44;100.00;100726.56;5004402;28;20230;-61
2022/06/28 04:22:50;;;;;;;6.90;5.00;;;;;;;13.41;100.00;100725.00;5022865;28;20274;-62
2022/06/28 04:25:16;;;;;;;8.27;5.10;;;;;;;13.55;100.00;100729.38;5010425;28;20225;-62
2022/06/28 04:27:41;;;;;;;11.50;4.90;;;;;;;13.65;100.00;100729.69;5009977;28;20176;-61
2022/06/28 04:30:07;;;;;;;5.23;4.57;;;;;;;13.75;100.00;100730.00;4992843;28;20183;-62
2022/06/28 04:32:32;;;;;;;8.00;5.50;;;;;;;14.00;100.00;100725.06;5021490;28;20197;-62
2022/06/28 04:34:59;;;;;;;10.80;5.53;;;;;;;14.26;100.00;100719.25;4993439;28;20259;-63
2022/06/28 04:37:24;;;;;;;7.17;5.60;;;;;;;14.42;100.00;100716.56;4993618;28;20207;-62
2022/06/28 04:39:49;;;;;;;8.70;5.43;;;;;;;14.59;100.00;100725.88;4992837;28;20211;-63
2022/06/28 04:42:15;;;;;;;7.20;5.83;;;;;;;14.56;100.00;100718.31;5013261;28;20233;-63
2022/06/28 04:44:41;;;;;;;8.97;5.87;;;;;;;14.61;100.00;100718.84;5014610;28;20194;-62
2022/06/28 04:47:08;;;;;;;6.47;4.87;;;;;;;14.60;100.00;100719.75;5012055;28;20543;-62
2022/06/28 04:49:33;;;;;;;6.97;5.00;;;;;;;14.65;100.00;100725.53;5011678;28;20183;-62
2022/06/28 04:51:58;;;;;;;5.70;4.80;;;;;;;14.81;100.00;100722.81;5016783;28;20229;-62
2022/06/28 04:54:24;;;;;;;5.73;5.20;;;;;;;15.08;100.00;100720.25;5020606;28;20187;-63
2022/06/28 04:56:49;;;;;;;9.17;7.03;;;;;;;15.09;100.00;100714.13;5012085;28;20189;-62
2022/06/28 04:59:14;;;;;;;10.13;6.17;;;;;;;15.07;100.00;100725.53;5011678;28;20332;-65
2022/06/28 05:01:39;;;;;;;8.37;6.37;;;;;;;15.27;100.00;100721.66;5013780;28;20237;-62
2022/06/28 05:04:05;;;;;;;6.90;5.43;;;;;;;15.43;100.00;100730.13;5015036;28;20191;-62
2022/06/28 05:06:30;;;;;;;7.90;5.87;;;;;;;15.51;100.00;100736.56;5013393;28;20175;-63
2022/06/28 05:08:56;;;;;;;8.23;5.00;;;;;;;15.84;100.00;100743.06;5011253;28;20174;-62
2022/06/28 05:11:22;;;;;;;7.87;5.13;;;;;;;16.21;100.00;100740.59;5011809;28;20280;-62
2022/06/28 05:13:47;;;;;;;10.23;5.83;;;;;;;15.90;100.00;100737.47;5016597;28;20285;-61
2022/06/28 05:16:13;;;;;;;7.10;6.00;;;;;;;16.03;100.00;100738.31;5012018;28;20267;-62
2022/06/28 05:18:38;;;;;;;8.53;5.57;;;;;;;16.16;100.00;100743.50;5011143;28;20581;-61
2022/06/28 05:21:03;;;;;;;5.57;5.07;;;;;;;16.27;100.00;100733.25;5008477;28;20242;-62
2022/06/28 05:23:29;;;;;;;5.93;4.70;;;;;;;16.65;100.00;100726.31;5009978;28;20690;-61
2022/06/28 05:25:54;;;;;;;7.80;4.83;;;;;;;16.85;100.00;100724.91;5011508;28;20190;-62
2022/06/28 05:28:20;;;;;;;5.87;4.80;;;;;;;16.75;100.00;100727.31;5011770;28;20576;-62
2022/06/28 05:30:45;;;;;;;9.10;5.53;;;;;;;16.65;100.00;100725.50;5006491;28;20327;-62
2022/06/28 05:33:11;;;;;;;9.70;5.70;;;;;;;17.07;100.00;100716.44;5010112;28;20204;-62
2022/06/28 05:35:36;;;;;;;5.57;5.07;;;;;;;17.43;100.00;100711.25;5011175;28;20174;-62
2022/06/28 05:38:02;;;;;;;7.67;4.93;;;;;;;17.56;100.00;100717.22;5011285;28;20372;-62
2022/06/28 05:40:28;;;;;;;7.27;5.00;;;;;;;17.57;100.00;100721.47;5003977;28;20232;-63
2022/06/28 05:42:53;;;;;;;12.00;5.47;;;;;;;18.06;100.00;100721.38;5023494;28;20697;-63
2022/06/28 05:45:19;;;;;;;6.57;5.07;;;;;;;18.33;99.31;100714.97;5021531;28;20182;-63
2022/06/28 05:47:45;;;;;;;13.57;6.50;;;;;;;18.28;95.72;100724.91;5011458;28;20213;-62
2022/06/28 05:50:11;;;;;;;6.67;5.77;;;;;;;18.53;94.17;100719.44;5001842;28;20521;-63
2022/06/28 05:52:36;;;;;;;8.50;5.67;;;;;;;18.71;90.65;100722.38;5025603;28;20186;-61
2022/06/28 05:55:02;;;;;;;8.07;6.00;;;;;;;18.40;91.05;100713.53;5012815;28;20246;-62
2022/06/28 05:57:27;;;;;;;7.73;6.07;;;;;;;17.99;97.43;100722.78;5011157;28;20183;-62
2022/06/28 05:59:53;;;;;;;6.57;5.50;;;;;;;18.31;95.02;100720.28;5010851;28;20194;-62
2022/06/28 06:02:18;;;;;;;8.00;5.30;;;;;;;18.46;91.34;100725.28;5016203;28;20222;-62
2022/06/28 06:04:43;;;;;;;6.70;5.73;;;;;;;18.62;89.75;100719.66;5011375;28;20175;-62
2022/06/28 06:07:09;;;;;;;6.07;5.23;;;;;;;19.33;84.82;100719.25;5010103;28;20187;-61
2022/06/28 06:09:36;;;;;;;7.17;4.40;;;;;;;19.93;80.40;100718.69;5009962;28;20190;-61
2022/06/28 06:12:02;;;;;;;7.13;4.60;;;;;;;20.70;74.47;100716.50;5015573;28;20262;-61
2022/06/28 06:14:28;;;;;;;5.90;4.50;;;;;;;21.45;67.53;100716.84;5008810;28;20677;-61
2022/06/28 06:16:53;;;;;;;7.27;3.80;;;;;;;21.38;67.25;100719.16;5008984;28;20210;-62
2022/06/28 06:19:18;;;;;;;5.37;3.33;;;;;;;22.21;61.96;100720.38;5009364;28;20226;-62
2022/06/28 06:21:44;;;;;;;5.60;3.67;;;;;;;22.92;58.13;100721.50;5016913;28;20626;-61
2022/06/28 06:24:10;;;;;;;7.27;3.70;;;;;;;23.31;57.10;100721.22;5016134;28;20593;-61
2022/06/28 06:26:35;;;;;;;6.67;3.27;;;;;;;23.97;54.02;100726.13;5011682;28;20179;-61
2022/06/28 06:29:01;;;;;;;6.22;3.42;;;;;;;23.93;51.86;100730.88;5011620;28;20244;-62
2022/06/28 06:31:27;;;;;;;4.18;3.78;;;;;;;22.72;56.37;100734.78;5014503;28;20213;-61
2022/06/28 06:33:53;;;;;;;3.83;3.40;;;;;;;21.39;62.38;100735.72;5017261;28;20761;-63
2022/06/28 06:36:18;;;;;;;3.53;3.23;;;;;;;22.97;55.55;100734.19;5011701;28;20262;-63
2022/06/28 06:38:43;;;;;;;4.43;3.50;;;;;;;22.73;56.92;100736.41;5012813;28;20301;-62
2022/06/28 06:41:09;;;;;;;6.80;4.10;;;;;;;23.32;54.78;100727.28;5011945;28;20217;-62
2022/06/28 06:43:34;;;;;;;7.72;3.78;;;;;;;24.14;51.75;100724.41;5020792;28;20231;-62
2022/06/28 06:45:59;;;;;;;4.88;3.25;;;;;;;24.25;51.52;100729.38;5017817;28;20255;-61
2022/06/28 06:48:25;;;;;;;6.80;3.95;;;;;;;23.84;52.33;100724.72;5013614;28;20183;-62
2022/06/28 06:50:50;;;;;;;6.03;3.58;;;;;;;23.12;54.72;100732.69;5009469;28;20225;-58
2022/06/28 06:53:15;;;;;;;4.25;3.25;;;;;;;23.50;52.53;100725.47;5034909;28;20175;-59
2022/06/28 06:55:42;;;;;;;3.75;2.90;;;;;;;24.11;50.43;100727.34;5017526;28;20190;-59
2022/06/28 06:58:07;;;;;;;3.80;3.22;;;;;;;23.54;49.76;100723.34;5014145;28;20186;-57
2022/06/28 07:00:34;;;;;;;4.88;3.40;;;;;;;23.72;51.39;100725.13;4997529;28;20313;-58
2022/06/28 07:03:02;;;;;;;3.53;2.85;;;;;;;23.96;49.70;100727.91;5012906;28;20196;-59
2022/06/28 07:05:27;;;;;;;4.13;3.70;;;;;;;22.40;55.67;100730.81;5017859;28;20212;-58
2022/06/28 07:07:53;;;;;;;4.57;3.92;;;;;;;22.29;57.58;100722.25;5017495;28;20210;-58
2022/06/28 07:10:18;;;;;;;5.60;3.45;;;;;;;24.43;49.49;100720.56;5005510;28;20198;-59
2022/06/28 07:12:43;;;;;;;4.70;3.13;;;;;;;24.99;47.61;100718.22;5026951;28;20598;-57
2022/06/28 07:15:09;;;;;;;5.15;3.28;;;;;;;25.01;45.96;100718.09;5004182;28;20262;-58
2022/06/28 07:17:34;;;;;;;5.25;3.72;;;;;;;25.34;44.84;100715.44;5027189;28;20201;-58
2022/06/28 07:20:00;;;;;;;3.03;2.83;;;;;;;24.68;46.63;100713.59;5009140;28;20241;-58
2022/06/28 07:22:25;;;;;;;5.28;2.85;;;;;;;25.82;43.69;100726.91;5017882;28;20233;-58
2022/06/28 07:24:51;;;;;;;3.75;3.10;;;;;;;27.59;40.37;100717.66;5011070;28;20257;-57
2022/06/28 07:27:17;;;;;;;5.32;2.72;;;;;;;27.56;39.73;100715.38;5011454;28;20541;-58
2022/06/28 07:29:42;;;;;;;5.07;2.88;;;;;;;28.55;37.05;100716.84;5009578;28;20194;-59
2022/06/28 07:32:08;;;;;;;3.28;2.95;;;;;;;26.86;41.04;100721.53;4968064;28;20277;-59
2022/06/28 07:34:33;;;;;;;3.67;2.53;;;;;;;27.07;40.18;100720.06;5005100;28;20194;-59
2022/06/28 07:36:58;;;;;;;4.38;2.55;;;;;;;28.39;38.13;100724.00;5010025;28;20190;-58
2022/06/28 07:39:24;;;;;;;2.72;2.10;;;;;;;27.34;36.75;100726.59;5010809;28;20203;-59
2022/06/28 07:41:49;;;;;;;2.75;2.35;;;;;;;27.39;37.04;100728.72;5012049;28;20644;-59
2022/06/28 07:44:15;;;;;;;3.08;2.17;;;;;;;27.61;35.99;100718.28;5020247;28;20183;-60
2022/06/28 07:46:40;;;;;;;4.30;2.08;;;;;;;27.26;35.61;100726.66;5013803;28;20190;-59
2022/06/28 07:49:05;;;;;;;4.30;1.83;;;;;;;28.05;34.70;100727.28;5004352;28;20716;-59
2022/06/28 07:54:14;;;;;;;2.83;1.80;;;;;;;29.75;30.21;100727.66;5007759;28;20191;-58
2022/06/28 07:56:40;;;;;;;3.95;1.85;;;;;;;29.07;30.85;100730.81;5007366;28;20187;-59
2022/06/28 07:59:05;;;;;;;3.38;1.80;;;;;;;27.67;34.34;100728.13;5012858;28;20195;-59
2022/06/28 08:01:30;;;;;;;2.17;1.90;;;;;;;27.44;34.23;100731.66;5014014;28;20593;-60
2022/06/28 08:03:55;;;;;;;3.97;2.05;;;;;;;27.76;33.66;100713.84;5016594;28;20186;-59
2022/06/28 08:06:21;;;;;;;7.65;1.90;;;;;;;29.10;32.79;100712.72;5015140;28;20630;-59
2022/06/28 08:08:46;;;;;;;5.70;2.22;;;;;;;29.43;31.17;100717.47;5012301;28;20183;-59
2022/06/28 08:11:12;;;;;;;3.30;1.98;;;;;;;29.26;31.60;100706.31;5004204;28;20267;-59
2022/06/28 08:13:37;;;;;;;3.03;1.98;;;;;;;28.82;32.21;100707.38;5017526;28;20178;-60
2022/06/28 08:16:04;;;;;;;3.30;1.90;;;;;;;28.97;31.81;100696.72;5011384;28;20210;-60
2022/06/28 08:18:29;;;;;;;3.10;1.60;;;;;;;28.09;30.75;100702.09;5011523;28;20191;-60
2022/06/28 08:20:55;;;;;;;3.72;1.77;;;;;;;28.73;31.40;100688.16;5008249;28;20758;-59
2022/06/28 08:23:20;;;;;;;2.33;1.45;;;;;;;28.78;29.70;100687.59;5020976;28;20257;-60
2022/06/28 08:25:46;;;;;;;3.35;1.48;;;;;;;28.96;29.39;100684.47;5010480;28;20405;-58
2022/06/28 08:28:13;;;;;;;4.28;1.75;;;;;;;28.94;29.65;100689.97;5010655;28;20278;-57
2022/06/28 08:30:39;;;;;;;3.75;1.40;;;;;;;28.53;30.38;100680.00;5004377;28;20267;-58
2022/06/28 08:33:04;;;;;;;3.13;1.27;;;;;;;29.08;29.64;100682.94;5022237;28;20272;-59
2022/06/28 08:35:30;;;;;;;5.88;1.50;;;;;;;28.72;29.01;100675.13;5011618;28;20212;-59
2022/06/28 08:37:55;;;;;;;3.50;1.42;;;;;;;30.32;28.18;100677.13;4995049;28;20249;-58
2022/06/28 08:40:22;;;;;;;3.85;2.53;;;;;;;28.96;31.27;100679.19;4984006;28;20234;-58
2022/06/28 08:42:52;;;;;;;5.05;2.03;;;;;;;30.46;29.52;100685.94;5019833;28;20237;-58
2022/06/28 08:45:17;;;;;;;3.65;1.90;;;;;;;30.00;28.94;100680.28;5006289;28;20270;-59
2022/06/28 08:47:47;;;;;;;3.72;1.65;;;;;;;30.53;27.76;100687.59;5009056;28;20666;-59
2022/06/28 08:50:22;;;;;;;1.33;1.20;;;;;;;28.89;29.54;100686.25;5006673;28;20633;-59
2022/06/28 08:52:48;;;;;;;4.53;2.03;;;;;;;29.86;27.75;100681.22;5025396;28;20202;-59
2022/06/28 08:55:14;;;;;;;5.68;1.88;;;;;;;30.53;28.40;100679.63;4995972;28;20515;-58
2022/06/28 08:57:41;;;;;;;4.45;1.60;;;;;;;31.21;27.34;100672.53;5003608;28;20220;-60
2022/06/28 09:00:10;;;;;;;2.70;1.58;;;;;;;29.52;28.39;100680.22;4987807;28;20289;-59
2022/06/28 09:02:36;;;;;;;4.78;2.10;;;;;;;29.53;27.73;100677.38;5025786;28;20252;-59
2022/06/28 09:05:03;;;;;;;2.67;1.60;;;;;;;29.42;27.93;100664.66;5012532;28;20186;-59
2022/06/28 09:07:28;;;;;;;2.22;1.20;;;;;;;30.11;27.97;100663.78;5007802;28;20179;-59
2022/06/28 09:09:54;;;;;;;3.38;1.50;;;;;;;30.05;27.25;100656.63;4994710;28;20678;-58
2022/06/28 09:12:20;;;;;;;3.80;1.60;;;;;;;29.26;27.80;100656.00;5015873;28;20221;-59
2022/06/28 09:14:46;;;;;;;1.60;1.13;;;;;;;29.72;26.93;100653.81;5002600;28;20237;-58
2022/06/28 09:17:23;;;;;;;3.10;1.50;;;;;;;30.23;24.87;100645.47;5009456;28;20190;-59
2022/06/28 09:19:57;;;;;;;2.72;1.38;;;;;;;30.82;24.17;100645.75;5025679;28;20655;-59
2022/06/28 09:22:32;;;;;;;2.22;1.17;;;;;;;30.04;24.50;100641.75;5016658;28;20249;-60
2022/06/28 09:24:59;;;;;;;3.28;0.85;;;;;;;30.97;23.67;100636.75;5011494;28;20221;-58
2022/06/28 09:27:33;;;;;;;5.22;1.50;;;;;;;29.51;24.01;100634.34;5010175;28;20513;-59
2022/06/28 09:30:00;;;;;;;2.97;0.85;;;;;;;30.19;23.92;100632.78;5011355;28;20265;-59
2022/06/28 09:32:28;;;;;;;1.23;0.75;;;;;;;31.38;22.72;100627.72;5016849;28;20239;-59
2022/06/28 09:34:56;;;;;;;2.70;1.00;;;;;;;31.39;24.43;100624.03;5011525;28;20241;-58
2022/06/28 09:37:33;;;;;;;3.42;1.10;;;;;;;32.50;23.10;100629.25;5011519;28;20190;-60
2022/06/28 09:40:13;;;;;;;3.03;1.25;;;;;;;31.69;22.54;100629.69;5010893;28;21083;-60
2022/06/28 09:42:40;;;;;;;3.10;1.48;;;;;;;32.40;21.73;100631.56;4981208;28;20638;-64
2022/06/28 09:45:06;;;;;;;1.92;1.20;;;;;;;30.31;24.18;100612.59;4999555;28;20195;-69
2022/06/28 09:47:31;;;;;;;2.67;1.52;;;;;;;30.70;22.77;100618.16;4990209;28;20190;-66
2022/06/28 09:49:57;;;;;;;3.13;1.23;;;;;;;30.21;23.64;100605.03;4992922;28;20171;-69
2022/06/28 09:52:27;;;;;;;1.80;0.98;;;;;;;30.53;22.99;100599.19;4996593;28;20223;-69
2022/06/28 09:54:55;;;;;;;1.23;0.95;;;;;;;31.49;22.40;100597.81;4997814;28;20548;-70
2022/06/28 09:57:21;;;;;;;3.35;1.10;;;;;;;30.87;22.54;100605.31;4996783;28;20180;-66
2022/06/28 09:59:49;;;;;;;3.05;1.15;;;;;;;32.21;21.11;100596.91;4995271;28;20544;-67
2022/06/28 10:02:16;;;;;;;2.50;1.10;;;;;;;30.62;22.88;100592.66;5003424;28;20221;-65
2022/06/28 10:04:44;;;;;;;1.20;1.05;;;;;;;31.71;22.35;100585.06;5014915;28;20183;-66
2022/06/28 10:07:10;;;;;;;1.45;1.13;;;;;;;32.88;21.99;100588.38;5015276;28;20419;-67
2022/06/28 10:09:36;;;;;;;3.25;1.15;;;;;;;34.83;19.60;100597.28;5009022;28;20190;-69
2022/06/28 10:15:01;;;;;;;2.78;1.00;;;;;;;30.81;21.61;100580.41;5012464;28;20551;-67
2022/06/28 10:17:48;;;;;;;3.28;1.30;;;;;;;30.34;22.97;100585.69;5007373;28;20693;-69
2022/06/28 10:20:20;;;;;;;3.58;1.00;;;;;;;32.37;21.19;100582.25;5006258;28;20344;-66
2022/06/28 10:22:45;;;;;;;3.50;1.33;;;;;;;31.82;21.41;100594.25;5024676;28;20206;-67
2022/06/28 10:25:23;;;;;;;3.25;1.10;;;;;;;31.11;22.43;100579.97;5005741;28;20223;-67
2022/06/28 10:27:52;;;;;;;4.32;1.40;;;;;;;30.71;21.88;100594.09;5014060;28;20213;-67
2022/06/28 10:30:31;;;;;;;5.00;1.25;;;;;;;30.66;22.46;100585.09;5005931;28;20187;-67
2022/06/28 10:33:06;;;;;;;1.88;0.68;;;;;;;30.94;22.31;100574.25;5021985;28;20229;-69
2022/06/28 10:35:31;;;;;;;3.28;0.90;;;;;;;31.91;19.61;100581.50;5013499;28;20193;-69
2022/06/28 10:38:08;;;;;;;1.63;0.93;;;;;;;31.10;21.63;100574.84;5011656;28;20200;-63
2022/06/28 10:40:47;;;;;;;1.77;1.25;;;;;;;31.60;20.59;100580.41;5006400;28;20236;-65
2022/06/28 10:43:13;;;;;;;2.17;1.30;;;;;;;30.96;22.08;100577.53;5014100;28;20186;-65
2022/06/28 10:46:02;;;;;;;3.60;1.27;;;;;;;30.61;23.18;100577.75;5015261;28;20179;-66
2022/06/28 10:48:28;;;;;;;1.67;1.00;;;;;;;29.53;23.44;100575.84;5009459;28;20224;-69
2022/06/28 10:51:02;;;;;;;1.55;0.90;;;;;;;27.09;25.19;100569.41;5013623;28;20293;-67
2022/06/28 10:53:28;;;;;;;3.80;1.20;;;;;;;25.92;27.66;100563.34;5022799;28;20279;-67
2022/06/28 10:56:12;;;;;;;2.22;1.25;;;;;;;25.48;28.66;100563.84;5011854;28;20194;-66
2022/06/28 10:58:57;;;;;;;3.15;1.08;;;;;;;25.26;29.34;100547.78;5014560;28;20179;-66
2022/06/28 11:01:44;;;;;;;1.00;0.90;;;;;;;24.83;29.76;100536.69;5005823;28;20240;-68
2022/06/28 11:04:23;;;;;;;1.90;0.90;;;;;;;24.64;30.72;100528.13;5017531;28;20202;-68
2022/06/28 11:07:19;;;;;;;5.22;1.05;;;;;;;24.79;30.34;100517.78;5016480;28;20244;-65
2022/06/28 11:10:00;;;;;;;3.70;0.90;;;;;;;24.69;29.20;100517.97;5011982;28;20175;-65
2022/06/28 11:12:31;;;;;;;2.33;1.02;;;;;;;24.44;30.25;100520.56;5020008;28;20348;-67
2022/06/28 11:15:02;;;;;;;4.18;1.35;;;;;;;24.40;29.98;100510.53;5002498;28;20185;-66
2022/06/28 11:17:37;;;;;;;1.57;0.90;;;;;;;24.25;30.68;100507.75;5016723;28;20215;-65
2022/06/28 11:20:07;;;;;;;3.80;1.00;;;;;;;24.07;31.32;100505.28;4997635;28;20320;-68
2022/06/28 11:22:47;;;;;;;2.67;1.00;;;;;;;24.02;30.66;100498.69;5028819;28;20192;-66
2022/06/28 11:25:19;;;;;;;1.30;0.80;;;;;;;23.76;30.97;100493.53;5014642;28;20178;-66
2022/06/28 11:27:53;;;;;;;1.70;0.83;;;;;;;23.92;30.72;100494.59;5013218;28;20185;-66
2022/06/28 11:30:20;;;;;;;2.40;1.40;;;;;;;24.01;30.99;100481.31;4976732;28;20587;-68
2022/06/28 11:32:49;;;;;;;1.80;1.07;;;;;;;23.94;30.03;100484.72;4998090;28;20214;-67